createdAt,value
2022-10-06T00:01:38.203Z,7.50
2022-10-06T00:06:37.582Z,7.40
2022-10-06T00:11:38.029Z,8.60
2022-10-06T00:16:36.909Z,10.00
2022-10-06T00:21:36.467Z,7.50
2022-10-06T00:26:36.340Z,7.30
2022-10-06T00:31:36.132Z,8.80
2022-10-06T00:36:35.642Z,7.90
2022-10-06T00:41:34.594Z,5.80
2022-10-06T00:46:41.596Z,7.50
2022-10-06T00:51:45.025Z,7.20
2022-10-06T00:56:46.330Z,7.80
2022-10-06T01:01:53.913Z,6.70
2022-10-06T01:06:59.073Z,8.10
2022-10-06T01:12:02.345Z,8.30
2022-10-06T01:17:10.850Z,8.90
2022-10-06T01:22:12.808Z,6.90
2022-10-06T01:27:16.071Z,9.20
2022-10-06T01:32:15.047Z,8.30
2022-10-06T01:37:14.648Z,9.50
2022-10-06T01:42:14.855Z,9.10
2022-10-06T01:47:14.074Z,8.20
2022-10-06T01:52:13.541Z,8.90
2022-10-06T01:57:12.769Z,10.90
2022-10-06T02:02:11.976Z,8.40
2022-10-06T02:07:11.174Z,7.60
2022-10-06T02:12:16.180Z,9.80
2022-10-06T02:17:16.691Z,8.20
2022-10-06T02:22:15.924Z,8.30
2022-10-06T02:27:15.497Z,9.80
2022-10-06T02:32:15.575Z,8.50
2022-10-06T02:37:17.521Z,8.20
2022-10-06T02:42:17.380Z,9.80
2022-10-06T02:47:17.628Z,6.30
2022-10-06T02:52:17.136Z,8.70
2022-10-06T02:57:17.440Z,8.70
2022-10-06T03:02:17.559Z,6.70
2022-10-06T03:07:18.232Z,5.40
2022-10-06T03:12:18.211Z,7.40
2022-10-06T03:17:17.931Z,7.00
2022-10-06T03:22:21.719Z,8.00
2022-10-06T03:27:23.635Z,5.90
2022-10-06T03:32:25.306Z,9.70
2022-10-06T03:37:24.956Z,7.00
2022-10-06T03:42:24.515Z,6.60
2022-10-06T03:47:24.240Z,6.00
2022-10-06T03:52:25.985Z,6.30
2022-10-06T03:57:26.914Z,5.20
2022-10-06T04:02:27.133Z,6.80
2022-10-06T04:07:27.146Z,7.50
2022-10-06T04:12:26.515Z,7.00
2022-10-06T04:17:26.187Z,5.10
2022-10-06T04:22:26.019Z,8.80
2022-10-06T04:27:31.103Z,8.40
2022-10-06T04:32:42.968Z,7.80
2022-10-06T04:37:42.082Z,6.60
2022-10-06T04:42:41.756Z,8.20
2022-10-06T04:47:45.198Z,7.50
2022-10-06T04:52:44.296Z,9.80
2022-10-06T04:57:43.834Z,4.70
2022-10-06T05:02:43.933Z,7.50
2022-10-06T05:07:45.158Z,6.70
2022-10-06T05:12:45.539Z,6.20
2022-10-06T05:17:45.787Z,7.80
2022-10-06T05:22:45.961Z,7.90
2022-10-06T05:27:46.111Z,8.00
2022-10-06T05:32:50.754Z,8.20
2022-10-06T05:37:50.802Z,6.90
2022-10-06T05:42:50.990Z,8.50
2022-10-06T05:47:51.415Z,7.40
2022-10-06T05:52:51.141Z,8.70
2022-10-06T05:57:51.288Z,6.10
2022-10-06T06:02:53.106Z,6.50
2022-10-06T06:07:54.287Z,7.30
2022-10-06T06:12:53.944Z,5.90
2022-10-06T06:18:17.712Z,7.20
2022-10-06T06:23:18.559Z,6.10
2022-10-06T06:28:18.476Z,6.30
2022-10-06T06:33:18.298Z,6.50
2022-10-06T06:38:19.518Z,6.40
2022-10-06T06:43:19.912Z,8.50
2022-10-06T06:48:40.602Z,7.00
2022-10-06T06:53:41.309Z,5.60
2022-10-06T06:58:47.654Z,8.30
2022-10-06T07:03:58.415Z,7.90
2022-10-06T07:09:02.646Z,9.60
2022-10-06T07:14:07.722Z,7.70
2022-10-06T07:19:28.724Z,9.30
2022-10-06T07:24:48.994Z,9.00
2022-10-06T07:29:48.255Z,7.00
2022-10-06T07:34:47.563Z,5.40
2022-10-06T07:39:49.765Z,7.70
2022-10-06T07:45:04.368Z,7.40
2022-10-06T07:50:03.870Z,9.80
2022-10-06T07:55:06.580Z,6.70
2022-10-06T08:00:29.638Z,6.50
2022-10-06T08:05:34.103Z,8.40
2022-10-06T08:10:35.883Z,8.40
2022-10-06T08:15:36.201Z,5.80
2022-10-06T08:20:36.025Z,7.00
2022-10-06T08:25:42.838Z,5.60
2022-10-06T08:30:42.554Z,9.00
2022-10-06T08:35:43.154Z,6.90
2022-10-06T08:40:52.676Z,8.60
2022-10-06T08:51:20.154Z,6.80
2022-10-06T08:56:37.338Z,7.00
2022-10-06T09:01:45.258Z,8.10
2022-10-06T09:07:11.240Z,8.20
2022-10-06T09:12:25.069Z,6.40
2022-10-06T09:17:31.812Z,8.30
2022-10-06T09:22:35.972Z,6.60
2022-10-06T09:27:41.559Z,7.30
2022-10-06T09:32:47.589Z,7.50
2022-10-06T09:37:59.123Z,4.60
2022-10-06T09:42:59.333Z,6.10
2022-10-06T09:48:15.152Z,3.90
2022-10-06T09:53:22.180Z,4.90
2022-10-06T09:58:31.565Z,6.70
2022-10-06T10:04:02.073Z,5.20
2022-10-06T10:09:32.242Z,7.40
2022-10-06T10:14:40.306Z,5.00
2022-10-06T10:19:46.973Z,6.20
2022-10-06T10:25:05.812Z,4.70
2022-10-06T10:30:12.798Z,5.60
2022-10-06T10:35:22.856Z,5.20
2022-10-06T10:40:48.347Z,5.10
2022-10-06T10:45:54.474Z,4.40
2022-10-06T10:51:08.763Z,4.30
2022-10-06T10:56:11.953Z,4.10
2022-10-06T11:01:29.594Z,4.50
2022-10-06T11:07:03.070Z,6.00
2022-10-06T11:12:24.532Z,5.90
2022-10-06T11:17:45.451Z,4.80
2022-10-06T11:22:55.878Z,4.40
2022-10-06T11:28:09.518Z,7.10
2022-10-06T11:33:24.784Z,5.60
2022-10-06T11:38:32.554Z,5.80
2022-10-06T11:43:42.451Z,4.60
2022-10-06T11:48:42.878Z,3.30
2022-10-06T11:53:48.634Z,5.40
2022-10-06T11:59:25.526Z,2.30
2022-10-06T12:04:27.538Z,3.10
2022-10-06T12:09:53.892Z,3.90
2022-10-06T12:20:34.964Z,6.50
2022-10-06T12:25:43.489Z,3.40
2022-10-06T12:31:13.429Z,3.90
2022-10-06T12:36:27.076Z,5.00
2022-10-06T12:42:07.923Z,4.60
2022-10-06T12:47:19.311Z,5.10
2022-10-06T12:52:48.548Z,3.70
2022-10-06T12:57:54.246Z,3.90
2022-10-06T13:02:57.795Z,3.40
2022-10-06T13:08:06.146Z,3.60
2022-10-06T13:13:20.487Z,3.60
2022-10-06T13:18:21.719Z,4.60
2022-10-06T13:23:39.041Z,2.90
2022-10-06T13:28:54.627Z,4.30
2022-10-06T13:34:00.003Z,3.30
2022-10-06T13:39:02.850Z,3.70
2022-10-06T13:44:18.002Z,5.00
2022-10-06T13:49:28.078Z,5.70
2022-10-06T13:54:34.359Z,3.90
2022-10-06T13:59:39.532Z,5.00
2022-10-06T14:04:39.773Z,4.60
2022-10-06T14:09:39.527Z,3.70
2022-10-06T14:14:40.582Z,3.30
2022-10-06T14:19:42.372Z,4.10
2022-10-06T14:24:54.145Z,3.30
2022-10-06T14:29:53.157Z,2.40
2022-10-06T14:34:52.432Z,4.90
2022-10-06T14:39:56.638Z,3.90
2022-10-06T14:44:57.956Z,2.20
2022-10-06T14:49:57.807Z,3.80
2022-10-06T14:54:59.755Z,3.50
2022-10-06T14:59:59.819Z,2.90
2022-10-06T15:04:59.044Z,4.70
2022-10-06T15:10:00.427Z,3.00
2022-10-06T15:15:00.188Z,4.60
2022-10-06T15:20:01.487Z,3.40
2022-10-06T15:25:03.592Z,3.30
2022-10-06T15:30:03.541Z,4.70
2022-10-06T15:35:03.338Z,3.50
2022-10-06T15:40:05.838Z,3.50
2022-10-06T15:45:07.483Z,3.80
2022-10-06T15:50:07.513Z,4.10
2022-10-06T15:55:08.056Z,2.50
2022-10-06T16:00:09.325Z,4.80
2022-10-06T16:05:37.988Z,3.80
2022-10-06T16:10:37.155Z,6.50
2022-10-06T16:15:37.376Z,3.30
2022-10-06T16:20:36.372Z,3.80
2022-10-06T16:25:35.971Z,2.70
2022-10-06T16:31:03.387Z,4.00
2022-10-06T16:36:23.993Z,4.00
2022-10-06T16:41:27.789Z,4.50
2022-10-06T16:46:32.901Z,7.90
2022-10-06T16:51:35.275Z,3.80
2022-10-06T16:56:50.082Z,3.20
2022-10-06T17:02:18.408Z,3.70
2022-10-06T17:07:39.324Z,3.60
2022-10-06T17:13:01.374Z,4.40
2022-10-06T17:18:20.008Z,4.00
2022-10-06T17:23:33.526Z,4.10
2022-10-06T17:28:33.508Z,3.10
2022-10-06T17:33:41.353Z,4.80
2022-10-06T17:38:46.474Z,4.10
2022-10-06T17:43:48.871Z,5.10
2022-10-06T17:48:51.941Z,4.80
2022-10-06T17:53:56.374Z,8.20
2022-10-06T17:59:00.699Z,5.00
2022-10-06T18:04:00.664Z,6.20
2022-10-06T18:09:02.996Z,4.90
2022-10-06T18:14:05.261Z,4.80
2022-10-06T18:19:08.069Z,4.90
2022-10-06T18:24:11.196Z,7.80
2022-10-06T18:29:12.358Z,5.90
2022-10-06T18:39:33.608Z,6.90
2022-10-06T18:44:50.459Z,6.90
2022-10-06T18:49:50.300Z,6.30
2022-10-06T18:54:51.142Z,5.30
2022-10-06T18:59:52.285Z,7.20
2022-10-06T19:04:54.949Z,6.00
2022-10-06T19:09:56.843Z,5.20
2022-10-06T19:14:57.417Z,6.40
2022-10-06T19:19:57.179Z,5.40
2022-10-06T19:24:56.976Z,5.80
2022-10-06T19:29:59.195Z,8.20
2022-10-06T19:35:02.720Z,7.60
2022-10-06T19:40:03.683Z,7.90
2022-10-06T19:45:04.644Z,7.40
2022-10-06T19:50:12.461Z,7.40
2022-10-06T19:55:18.165Z,5.40
2022-10-06T20:01:11.283Z,5.90
2022-10-06T20:06:27.043Z,7.40
2022-10-06T20:11:28.061Z,4.60
2022-10-06T20:16:27.739Z,5.30
2022-10-06T20:21:31.523Z,4.70
2022-10-06T20:26:34.288Z,9.10
2022-10-06T20:31:36.794Z,7.00
2022-10-06T20:36:37.913Z,7.50
2022-10-06T20:41:38.759Z,8.00
2022-10-06T20:46:40.585Z,5.80
2022-10-06T20:51:47.488Z,5.60
2022-10-06T20:56:49.347Z,5.90
2022-10-06T21:01:48.752Z,6.70
2022-10-06T21:06:48.533Z,7.10
2022-10-06T21:11:49.524Z,6.60
2022-10-06T21:16:51.958Z,7.00
2022-10-06T21:21:56.055Z,7.80
2022-10-06T21:26:56.538Z,7.20
2022-10-06T21:31:56.093Z,9.50
2022-10-06T21:37:18.599Z,13.40
2022-10-06T21:42:26.926Z,10.30
2022-10-06T21:47:26.448Z,7.90
2022-10-06T21:52:25.714Z,9.30
2022-10-06T21:57:24.533Z,9.90
2022-10-06T22:02:27.138Z,7.30
2022-10-06T22:07:26.393Z,6.70
2022-10-06T22:12:25.555Z,10.20
2022-10-06T22:17:25.177Z,8.30
2022-10-06T22:22:24.403Z,6.70
2022-10-06T22:27:23.052Z,7.90
2022-10-06T22:32:25.149Z,7.00
2022-10-06T22:37:24.498Z,8.80
2022-10-06T22:42:23.602Z,7.20
2022-10-06T22:47:22.741Z,7.60
2022-10-06T22:52:22.479Z,8.30
2022-10-06T22:57:21.225Z,7.70
2022-10-06T23:02:20.659Z,11.40
2022-10-06T23:07:19.837Z,7.40
2022-10-06T23:12:18.992Z,11.40
2022-10-06T23:17:18.652Z,13.20
2022-10-06T23:22:18.365Z,14.40
2022-10-06T23:27:20.446Z,11.20
2022-10-06T23:32:19.870Z,19.60
2022-10-06T23:37:19.882Z,17.20
2022-10-06T23:42:19.123Z,20.10
2022-10-06T23:47:18.484Z,19.00
2022-10-06T23:52:18.209Z,19.80
2022-10-06T23:57:17.809Z,18.80
